sensor_id;sensor_type;location;lat;lon;timestamp;temperature;humidity
8664;DHT22;4369;47.842;13.096;2023-09-19T00:00:30;16.20;99.90
8664;DHT22;4369;47.842;13.096;2023-09-19T00:02:59;16.30;99.90
8664;DHT22;4369;47.842;13.096;2023-09-19T00:05:29;16.50;99.90
8664;DHT22;4369;47.842;13.096;2023-09-19T00:07:57;16.60;99.90
8664;DHT22;4369;47.842;13.096;2023-09-19T00:10:25;16.70;99.90
8664;DHT22;4369;47.842;13.096;2023-09-19T00:12:52;16.70;99.90
8664;DHT22;4369;47.842;13.096;2023-09-19T00:15:20;16.80;99.90
8664;DHT22;4369;47.842;13.096;2023-09-19T00:17:47;16.70;99.90
8664;DHT22;4369;47.842;13.096;2023-09-19T00:20:14;16.70;99.90
8664;DHT22;4369;47.842;13.096;2023-09-19T00:22:44;16.60;99.90
8664;DHT22;4369;47.842;13.096;2023-09-19T00:25:11;16.50;99.90
8664;DHT22;4369;47.842;13.096;2023-09-19T00:27:41;16.40;99.90
8664;DHT22;4369;47.842;13.096;2023-09-19T00:30:10;16.30;99.90
8664;DHT22;4369;47.842;13.096;2023-09-19T00:32:41;16.30;99.90
8664;DHT22;4369;47.842;13.096;2023-09-19T00:35:09;16.30;99.90
8664;DHT22;4369;47.842;13.096;2023-09-19T00:37:37;16.20;99.90
8664;DHT22;4369;47.842;13.096;2023-09-19T00:40:08;16.10;99.90
8664;DHT22;4369;47.842;13.096;2023-09-19T00:42:38;16.00;99.90
8664;DHT22;4369;47.842;13.096;2023-09-19T00:45:07;16.00;99.90
8664;DHT22;4369;47.842;13.096;2023-09-19T00:47:36;16.00;99.90
8664;DHT22;4369;47.842;13.096;2023-09-19T00:50:04;16.00;99.90
8664;DHT22;4369;47.842;13.096;2023-09-19T00:52:33;16.00;99.90
8664;DHT22;4369;47.842;13.096;2023-09-19T00:55:02;15.90;99.90
8664;DHT22;4369;47.842;13.096;2023-09-19T00:57:31;15.90;99.90
8664;DHT22;4369;47.842;13.096;2023-09-19T01:00:00;15.80;99.90
8664;DHT22;4369;47.842;13.096;2023-09-19T01:02:31;15.90;99.90
8664;DHT22;4369;47.842;13.096;2023-09-19T01:04:58;15.80;99.90
8664;DHT22;4369;47.842;13.096;2023-09-19T01:07:25;15.80;99.90
8664;DHT22;4369;47.842;13.096;2023-09-19T01:09:52;15.80;99.90
8664;DHT22;4369;47.842;13.096;2023-09-19T01:12:29;15.80;99.90
8664;DHT22;4369;47.842;13.096;2023-09-19T01:15:06;15.80;99.90
8664;DHT22;4369;47.842;13.096;2023-09-19T01:17:43;15.80;99.90
8664;DHT22;4369;47.842;13.096;2023-09-19T01:20:22;15.80;99.90
8664;DHT22;4369;47.842;13.096;2023-09-19T01:23:11;15.90;99.90
8664;DHT22;4369;47.842;13.096;2023-09-19T01:25:57;15.90;99.90
8664;DHT22;4369;47.842;13.096;2023-09-19T01:28:32;15.90;99.90
8664;DHT22;4369;47.842;13.096;2023-09-19T01:31:04;15.90;99.90
8664;DHT22;4369;47.842;13.096;2023-09-19T01:33:56;15.90;99.90
8664;DHT22;4369;47.842;13.096;2023-09-19T01:36:29;15.90;99.90
8664;DHT22;4369;47.842;13.096;2023-09-19T01:38:57;15.90;99.90
8664;DHT22;4369;47.842;13.096;2023-09-19T01:41:41;16.00;99.90
8664;DHT22;4369;47.842;13.096;2023-09-19T01:44:17;16.00;99.90
8664;DHT22;4369;47.842;13.096;2023-09-19T01:46:47;16.00;99.90
8664;DHT22;4369;47.842;13.096;2023-09-19T01:49:22;16.00;99.90
8664;DHT22;4369;47.842;13.096;2023-09-19T01:52:02;16.00;99.90
8664;DHT22;4369;47.842;13.096;2023-09-19T01:54:33;16.00;99.90
8664;DHT22;4369;47.842;13.096;2023-09-19T01:57:13;16.00;99.90
8664;DHT22;4369;47.842;13.096;2023-09-19T01:59:47;16.00;99.90
8664;DHT22;4369;47.842;13.096;2023-09-19T02:02:17;16.00;99.90
8664;DHT22;4369;47.842;13.096;2023-09-19T02:04:44;16.10;99.90
8664;DHT22;4369;47.842;13.096;2023-09-19T02:07:11;16.10;99.90
8664;DHT22;4369;47.842;13.096;2023-09-19T02:09:41;16.00;99.90
8664;DHT22;4369;47.842;13.096;2023-09-19T02:12:09;16.00;99.90
8664;DHT22;4369;47.842;13.096;2023-09-19T02:14:36;16.00;99.90
8664;DHT22;4369;47.842;13.096;2023-09-19T02:17:03;16.10;99.90
8664;DHT22;4369;47.842;13.096;2023-09-19T02:19:38;16.10;99.90
8664;DHT22;4369;47.842;13.096;2023-09-19T02:22:07;16.10;99.90
8664;DHT22;4369;47.842;13.096;2023-09-19T02:24:36;16.10;99.90
8664;DHT22;4369;47.842;13.096;2023-09-19T02:27:04;16.10;99.90
8664;DHT22;4369;47.842;13.096;2023-09-19T02:29:31;16.20;99.90
8664;DHT22;4369;47.842;13.096;2023-09-19T02:32:00;16.20;99.90
8664;DHT22;4369;47.842;13.096;2023-09-19T02:34:27;16.20;99.90
8664;DHT22;4369;47.842;13.096;2023-09-19T02:36:55;16.20;99.90
8664;DHT22;4369;47.842;13.096;2023-09-19T02:39:22;16.20;99.90
8664;DHT22;4369;47.842;13.096;2023-09-19T02:41:50;16.20;99.90
8664;DHT22;4369;47.842;13.096;2023-09-19T02:44:17;16.20;99.90
8664;DHT22;4369;47.842;13.096;2023-09-19T02:46:45;16.20;99.90
8664;DHT22;4369;47.842;13.096;2023-09-19T02:49:12;16.20;99.90
8664;DHT22;4369;47.842;13.096;2023-09-19T02:51:39;16.20;99.90
8664;DHT22;4369;47.842;13.096;2023-09-19T02:54:08;16.20;99.90
8664;DHT22;4369;47.842;13.096;2023-09-19T02:56:35;16.20;99.90
8664;DHT22;4369;47.842;13.096;2023-09-19T02:59:03;16.20;99.90
8664;DHT22;4369;47.842;13.096;2023-09-19T03:01:31;16.20;99.90
8664;DHT22;4369;47.842;13.096;2023-09-19T03:03:59;16.20;99.90
8664;DHT22;4369;47.842;13.096;2023-09-19T03:06:26;16.30;99.90
8664;DHT22;4369;47.842;13.096;2023-09-19T03:08:53;16.30;99.90
8664;DHT22;4369;47.842;13.096;2023-09-19T03:11:23;16.30;99.90
8664;DHT22;4369;47.842;13.096;2023-09-19T03:13:51;16.30;99.90
8664;DHT22;4369;47.842;13.096;2023-09-19T03:16:19;16.30;99.90
8664;DHT22;4369;47.842;13.096;2023-09-19T03:18:47;16.30;99.90
8664;DHT22;4369;47.842;13.096;2023-09-19T03:21:14;16.30;99.90
8664;DHT22;4369;47.842;13.096;2023-09-19T03:23:42;16.30;99.90
8664;DHT22;4369;47.842;13.096;2023-09-19T03:26:11;16.30;99.90
8664;DHT22;4369;47.842;13.096;2023-09-19T03:28:41;16.30;99.90
8664;DHT22;4369;47.842;13.096;2023-09-19T03:31:08;16.20;99.90
8664;DHT22;4369;47.842;13.096;2023-09-19T03:33:35;16.20;99.90
8664;DHT22;4369;47.842;13.096;2023-09-19T03:36:03;16.20;99.90
8664;DHT22;4369;47.842;13.096;2023-09-19T03:38:31;16.20;99.90
8664;DHT22;4369;47.842;13.096;2023-09-19T03:41:01;16.30;99.90
8664;DHT22;4369;47.842;13.096;2023-09-19T03:43:28;16.20;99.90
8664;DHT22;4369;47.842;13.096;2023-09-19T03:45:56;16.20;99.90
8664;DHT22;4369;47.842;13.096;2023-09-19T03:48:23;16.20;99.90
8664;DHT22;4369;47.842;13.096;2023-09-19T03:50:50;16.20;99.90
8664;DHT22;4369;47.842;13.096;2023-09-19T03:53:18;16.30;99.90
8664;DHT22;4369;47.842;13.096;2023-09-19T03:55:45;16.20;99.90
8664;DHT22;4369;47.842;13.096;2023-09-19T03:58:12;16.20;99.90
8664;DHT22;4369;47.842;13.096;2023-09-19T04:00:40;16.20;99.90
8664;DHT22;4369;47.842;13.096;2023-09-19T04:03:08;16.20;99.90
8664;DHT22;4369;47.842;13.096;2023-09-19T04:05:44;16.20;99.90
8664;DHT22;4369;47.842;13.096;2023-09-19T04:08:11;16.20;99.90
8664;DHT22;4369;47.842;13.096;2023-09-19T04:10:38;16.20;99.90
8664;DHT22;4369;47.842;13.096;2023-09-19T04:13:05;16.20;99.90
8664;DHT22;4369;47.842;13.096;2023-09-19T04:15:33;16.20;99.90
8664;DHT22;4369;47.842;13.096;2023-09-19T04:18:00;16.20;99.90
8664;DHT22;4369;47.842;13.096;2023-09-19T04:20:30;16.20;99.90
8664;DHT22;4369;47.842;13.096;2023-09-19T04:22:57;16.20;99.90
8664;DHT22;4369;47.842;13.096;2023-09-19T04:25:25;16.30;99.90
8664;DHT22;4369;47.842;13.096;2023-09-19T04:27:53;16.30;99.90
8664;DHT22;4369;47.842;13.096;2023-09-19T04:30:20;16.30;99.90
8664;DHT22;4369;47.842;13.096;2023-09-19T04:32:47;16.20;99.90
8664;DHT22;4369;47.842;13.096;2023-09-19T04:35:16;16.20;99.90
8664;DHT22;4369;47.842;13.096;2023-09-19T04:37:44;16.20;99.90
8664;DHT22;4369;47.842;13.096;2023-09-19T04:40:12;16.20;99.90
8664;DHT22;4369;47.842;13.096;2023-09-19T04:42:40;16.20;99.90
8664;DHT22;4369;47.842;13.096;2023-09-19T04:45:08;16.20;99.90
8664;DHT22;4369;47.842;13.096;2023-09-19T04:47:36;16.30;99.90
8664;DHT22;4369;47.842;13.096;2023-09-19T04:50:08;16.30;99.90
8664;DHT22;4369;47.842;13.096;2023-09-19T04:52:39;16.30;99.90
8664;DHT22;4369;47.842;13.096;2023-09-19T04:55:09;16.30;99.90
8664;DHT22;4369;47.842;13.096;2023-09-19T04:57:39;16.40;99.90
8664;DHT22;4369;47.842;13.096;2023-09-19T05:00:07;16.40;99.90
8664;DHT22;4369;47.842;13.096;2023-09-19T05:02:38;16.40;99.90
8664;DHT22;4369;47.842;13.096;2023-09-19T05:05:07;16.40;99.90
8664;DHT22;4369;47.842;13.096;2023-09-19T05:07:35;16.40;99.90
8664;DHT22;4369;47.842;13.096;2023-09-19T05:10:02;16.40;99.90
8664;DHT22;4369;47.842;13.096;2023-09-19T05:12:33;16.40;99.90
8664;DHT22;4369;47.842;13.096;2023-09-19T05:15:01;16.30;99.90
8664;DHT22;4369;47.842;13.096;2023-09-19T05:17:29;16.30;99.90
8664;DHT22;4369;47.842;13.096;2023-09-19T05:19:57;16.30;99.90
8664;DHT22;4369;47.842;13.096;2023-09-19T05:22:26;16.20;99.90
8664;DHT22;4369;47.842;13.096;2023-09-19T05:24:53;16.20;99.90
8664;DHT22;4369;47.842;13.096;2023-09-19T05:27:20;16.20;99.90
8664;DHT22;4369;47.842;13.096;2023-09-19T05:29:49;16.30;99.90
8664;DHT22;4369;47.842;13.096;2023-09-19T05:32:16;16.30;99.90
8664;DHT22;4369;47.842;13.096;2023-09-19T05:34:45;16.30;99.90
8664;DHT22;4369;47.842;13.096;2023-09-19T05:37:13;16.30;99.90
8664;DHT22;4369;47.842;13.096;2023-09-19T05:39:41;16.30;99.90
8664;DHT22;4369;47.842;13.096;2023-09-19T05:42:08;16.30;99.90
8664;DHT22;4369;47.842;13.096;2023-09-19T05:44:35;16.30;99.90
8664;DHT22;4369;47.842;13.096;2023-09-19T05:47:03;16.40;99.90
8664;DHT22;4369;47.842;13.096;2023-09-19T05:49:30;16.30;99.90
8664;DHT22;4369;47.842;13.096;2023-09-19T05:51:57;16.40;99.90
8664;DHT22;4369;47.842;13.096;2023-09-19T05:54:25;16.40;99.90
8664;DHT22;4369;47.842;13.096;2023-09-19T05:56:53;16.40;99.90
8664;DHT22;4369;47.842;13.096;2023-09-19T05:59:20;16.30;99.90
8664;DHT22;4369;47.842;13.096;2023-09-19T06:01:46;16.30;99.90
8664;DHT22;4369;47.842;13.096;2023-09-19T06:04:15;16.40;99.90
8664;DHT22;4369;47.842;13.096;2023-09-19T06:06:42;16.50;99.90
8664;DHT22;4369;47.842;13.096;2023-09-19T06:09:08;16.60;99.90
8664;DHT22;4369;47.842;13.096;2023-09-19T06:11:36;16.70;99.90
8664;DHT22;4369;47.842;13.096;2023-09-19T06:14:03;16.80;99.90
8664;DHT22;4369;47.842;13.096;2023-09-19T06:16:30;16.90;99.90
8664;DHT22;4369;47.842;13.096;2023-09-19T06:18:58;17.00;99.90
8664;DHT22;4369;47.842;13.096;2023-09-19T06:21:28;17.10;99.90
8664;DHT22;4369;47.842;13.096;2023-09-19T06:23:55;17.10;99.90
8664;DHT22;4369;47.842;13.096;2023-09-19T06:26:23;17.20;99.90
8664;DHT22;4369;47.842;13.096;2023-09-19T06:28:52;17.30;99.90
8664;DHT22;4369;47.842;13.096;2023-09-19T06:31:19;17.30;99.90
8664;DHT22;4369;47.842;13.096;2023-09-19T06:33:48;17.30;99.90
8664;DHT22;4369;47.842;13.096;2023-09-19T06:36:15;17.50;99.90
8664;DHT22;4369;47.842;13.096;2023-09-19T06:38:44;17.60;99.90
8664;DHT22;4369;47.842;13.096;2023-09-19T06:41:11;17.60;99.90
8664;DHT22;4369;47.842;13.096;2023-09-19T06:43:39;17.90;99.90
8664;DHT22;4369;47.842;13.096;2023-09-19T06:46:05;17.90;99.90
8664;DHT22;4369;47.842;13.096;2023-09-19T06:48:33;17.90;99.90
8664;DHT22;4369;47.842;13.096;2023-09-19T06:51:00;17.80;99.90
8664;DHT22;4369;47.842;13.096;2023-09-19T06:53:30;17.80;99.90
8664;DHT22;4369;47.842;13.096;2023-09-19T06:55:59;17.90;99.90
8664;DHT22;4369;47.842;13.096;2023-09-19T06:58:26;18.10;99.90
8664;DHT22;4369;47.842;13.096;2023-09-19T07:00:53;18.20;99.90
8664;DHT22;4369;47.842;13.096;2023-09-19T07:03:20;18.40;99.90
8664;DHT22;4369;47.842;13.096;2023-09-19T07:05:49;18.50;99.90
8664;DHT22;4369;47.842;13.096;2023-09-19T07:08:15;18.50;99.90
8664;DHT22;4369;47.842;13.096;2023-09-19T07:10:45;18.50;99.90
8664;DHT22;4369;47.842;13.096;2023-09-19T07:13:15;18.50;99.90
8664;DHT22;4369;47.842;13.096;2023-09-19T07:15:43;18.60;99.90
8664;DHT22;4369;47.842;13.096;2023-09-19T07:18:13;18.70;99.90
8664;DHT22;4369;47.842;13.096;2023-09-19T07:20:42;18.80;99.90
8664;DHT22;4369;47.842;13.096;2023-09-19T07:23:15;19.00;99.90
8664;DHT22;4369;47.842;13.096;2023-09-19T07:25:43;19.20;99.90
8664;DHT22;4369;47.842;13.096;2023-09-19T07:28:11;19.20;70.30
8664;DHT22;4369;47.842;13.096;2023-09-19T07:30:39;19.40;84.30
8664;DHT22;4369;47.842;13.096;2023-09-19T07:33:07;19.50;80.50
8664;DHT22;4369;47.842;13.096;2023-09-19T07:35:36;19.60;77.00
8664;DHT22;4369;47.842;13.096;2023-09-19T07:38:05;19.70;58.00
8664;DHT22;4369;47.842;13.096;2023-09-19T07:40:32;19.80;94.90
8664;DHT22;4369;47.842;13.096;2023-09-19T07:42:59;19.80;76.60
8664;DHT22;4369;47.842;13.096;2023-09-19T07:45:27;19.90;59.80
8664;DHT22;4369;47.842;13.096;2023-09-19T07:47:57;19.80;37.80
8664;DHT22;4369;47.842;13.096;2023-09-19T07:50:24;19.80;55.90
8664;DHT22;4369;47.842;13.096;2023-09-19T07:52:52;19.80;27.10
8664;DHT22;4369;47.842;13.096;2023-09-19T07:55:21;19.90;17.50
8664;DHT22;4369;47.842;13.096;2023-09-19T07:57:50;19.90;27.60
8664;DHT22;4369;47.842;13.096;2023-09-19T08:00:18;19.90;58.30
8664;DHT22;4369;47.842;13.096;2023-09-19T08:02:45;19.90;16.30
8664;DHT22;4369;47.842;13.096;2023-09-19T08:05:14;20.00;17.40
8664;DHT22;4369;47.842;13.096;2023-09-19T08:07:43;20.00;31.50
8664;DHT22;4369;47.842;13.096;2023-09-19T08:10:11;20.10;1.00
8664;DHT22;4369;47.842;13.096;2023-09-19T08:12:39;20.00;1.00
8664;DHT22;4369;47.842;13.096;2023-09-19T08:15:12;19.90;1.00
8664;DHT22;4369;47.842;13.096;2023-09-19T08:17:39;20.00;1.00
8664;DHT22;4369;47.842;13.096;2023-09-19T08:20:07;20.00;1.00
8664;DHT22;4369;47.842;13.096;2023-09-19T08:22:43;19.90;1.00
8664;DHT22;4369;47.842;13.096;2023-09-19T08:25:13;19.80;1.00
8664;DHT22;4369;47.842;13.096;2023-09-19T08:27:41;19.90;1.00
8664;DHT22;4369;47.842;13.096;2023-09-19T08:30:10;20.00;1.00
8664;DHT22;4369;47.842;13.096;2023-09-19T08:32:37;20.10;1.00
8664;DHT22;4369;47.842;13.096;2023-09-19T08:35:06;20.10;1.00
8664;DHT22;4369;47.842;13.096;2023-09-19T08:37:34;20.30;1.00
8664;DHT22;4369;47.842;13.096;2023-09-19T08:40:03;20.40;99.90
8664;DHT22;4369;47.842;13.096;2023-09-19T08:42:47;20.60;99.90
8664;DHT22;4369;47.842;13.096;2023-09-19T08:45:14;20.70;98.50
8664;DHT22;4369;47.842;13.096;2023-09-19T08:47:46;20.70;60.20
8664;DHT22;4369;47.842;13.096;2023-09-19T08:50:19;20.70;99.90
8664;DHT22;4369;47.842;13.096;2023-09-19T08:52:51;20.80;79.50
8664;DHT22;4369;47.842;13.096;2023-09-19T08:55:26;20.80;99.90
8664;DHT22;4369;47.842;13.096;2023-09-19T08:57:59;20.80;71.10
8664;DHT22;4369;47.842;13.096;2023-09-19T09:00:26;20.70;1.00
8664;DHT22;4369;47.842;13.096;2023-09-19T09:02:55;20.90;99.90
8664;DHT22;4369;47.842;13.096;2023-09-19T09:05:23;21.00;59.70
8664;DHT22;4369;47.842;13.096;2023-09-19T09:07:52;21.00;1.00
8664;DHT22;4369;47.842;13.096;2023-09-19T09:10:21;21.20;1.00
8664;DHT22;4369;47.842;13.096;2023-09-19T09:12:49;21.40;1.00
8664;DHT22;4369;47.842;13.096;2023-09-19T09:15:19;21.40;1.00
8664;DHT22;4369;47.842;13.096;2023-09-19T09:17:47;21.30;1.00
8664;DHT22;4369;47.842;13.096;2023-09-19T09:20:16;21.40;1.00
8664;DHT22;4369;47.842;13.096;2023-09-19T09:22:51;21.30;1.00
8664;DHT22;4369;47.842;13.096;2023-09-19T09:25:20;21.30;1.00
8664;DHT22;4369;47.842;13.096;2023-09-19T09:27:58;21.20;1.00
8664;DHT22;4369;47.842;13.096;2023-09-19T09:30:33;21.30;1.00
8664;DHT22;4369;47.842;13.096;2023-09-19T09:33:10;21.40;1.00
8664;DHT22;4369;47.842;13.096;2023-09-19T09:35:47;21.40;99.90
8664;DHT22;4369;47.842;13.096;2023-09-19T09:38:17;21.40;32.30
8664;DHT22;4369;47.842;13.096;2023-09-19T09:40:50;21.30;99.90
8664;DHT22;4369;47.842;13.096;2023-09-19T09:43:28;21.30;77.10
8664;DHT22;4369;47.842;13.096;2023-09-19T09:46:14;21.10;1.00
8664;DHT22;4369;47.842;13.096;2023-09-19T09:49:10;21.20;99.90
8664;DHT22;4369;47.842;13.096;2023-09-19T09:51:59;21.30;99.90
8664;DHT22;4369;47.842;13.096;2023-09-19T09:54:31;21.30;1.00
8664;DHT22;4369;47.842;13.096;2023-09-19T09:57:05;21.50;54.60
8664;DHT22;4369;47.842;13.096;2023-09-19T09:59:50;21.60;99.90
8664;DHT22;4369;47.842;13.096;2023-09-19T10:02:20;21.60;1.00
8664;DHT22;4369;47.842;13.096;2023-09-19T10:04:51;21.70;1.00
8664;DHT22;4369;47.842;13.096;2023-09-19T10:07:28;21.70;1.00
8664;DHT22;4369;47.842;13.096;2023-09-19T10:10:00;21.60;1.00
8664;DHT22;4369;47.842;13.096;2023-09-19T10:12:43;21.70;1.00
8664;DHT22;4369;47.842;13.096;2023-09-19T10:15:11;21.70;1.00
8664;DHT22;4369;47.842;13.096;2023-09-19T10:17:43;21.70;1.00
8664;DHT22;4369;47.842;13.096;2023-09-19T10:20:13;21.90;1.00
8664;DHT22;4369;47.842;13.096;2023-09-19T10:23:06;22.00;1.00
8664;DHT22;4369;47.842;13.096;2023-09-19T10:25:37;22.20;1.00
8664;DHT22;4369;47.842;13.096;2023-09-19T10:28:08;22.30;1.00
8664;DHT22;4369;47.842;13.096;2023-09-19T10:30:38;22.40;1.00
8664;DHT22;4369;47.842;13.096;2023-09-19T10:33:09;22.50;1.00
8664;DHT22;4369;47.842;13.096;2023-09-19T10:35:38;22.60;1.00
8664;DHT22;4369;47.842;13.096;2023-09-19T10:38:06;23.00;1.00
8664;DHT22;4369;47.842;13.096;2023-09-19T10:40:35;23.40;1.00
8664;DHT22;4369;47.842;13.096;2023-09-19T10:43:11;23.80;1.00
8664;DHT22;4369;47.842;13.096;2023-09-19T10:45:39;24.30;1.00
8664;DHT22;4369;47.842;13.096;2023-09-19T10:48:07;24.50;1.00
8664;DHT22;4369;47.842;13.096;2023-09-19T10:50:41;24.50;1.00
8664;DHT22;4369;47.842;13.096;2023-09-19T10:53:11;24.80;1.00
8664;DHT22;4369;47.842;13.096;2023-09-19T10:55:39;24.90;1.00
8664;DHT22;4369;47.842;13.096;2023-09-19T10:58:08;24.70;1.00
8664;DHT22;4369;47.842;13.096;2023-09-19T11:00:52;24.80;1.00
8664;DHT22;4369;47.842;13.096;2023-09-19T11:03:20;24.90;1.00
8664;DHT22;4369;47.842;13.096;2023-09-19T11:06:05;25.00;1.00
8664;DHT22;4369;47.842;13.096;2023-09-19T11:08:54;25.20;1.00
8664;DHT22;4369;47.842;13.096;2023-09-19T11:11:43;25.40;1.00
8664;DHT22;4369;47.842;13.096;2023-09-19T11:14:39;25.50;1.00
8664;DHT22;4369;47.842;13.096;2023-09-19T11:20:20;25.60;1.00
8664;DHT22;4369;47.842;13.096;2023-09-19T11:23:23;25.20;1.00
8664;DHT22;4369;47.842;13.096;2023-09-19T11:25:55;24.90;1.00
8664;DHT22;4369;47.842;13.096;2023-09-19T11:28:35;25.20;1.00
8664;DHT22;4369;47.842;13.096;2023-09-19T11:34:44;24.50;1.00
8664;DHT22;4369;47.842;13.096;2023-09-19T11:40:37;24.60;1.00
8664;DHT22;4369;47.842;13.096;2023-09-19T11:43:30;25.10;1.00
8664;DHT22;4369;47.842;13.096;2023-09-19T11:46:06;25.50;1.00
8664;DHT22;4369;47.842;13.096;2023-09-19T11:48:35;25.90;1.00
8664;DHT22;4369;47.842;13.096;2023-09-19T11:51:18;26.10;1.00
8664;DHT22;4369;47.842;13.096;2023-09-19T11:53:48;26.00;1.00
8664;DHT22;4369;47.842;13.096;2023-09-19T11:56:16;25.90;1.00
8664;DHT22;4369;47.842;13.096;2023-09-19T11:58:44;26.00;1.00
8664;DHT22;4369;47.842;13.096;2023-09-19T12:01:14;25.60;1.00
8664;DHT22;4369;47.842;13.096;2023-09-19T12:03:47;25.70;1.00
8664;DHT22;4369;47.842;13.096;2023-09-19T12:06:20;25.70;1.00
8664;DHT22;4369;47.842;13.096;2023-09-19T12:08:47;26.00;1.00
8664;DHT22;4369;47.842;13.096;2023-09-19T12:11:16;25.80;1.00
8664;DHT22;4369;47.842;13.096;2023-09-19T12:13:44;25.90;1.00
8664;DHT22;4369;47.842;13.096;2023-09-19T12:16:15;26.60;1.00
8664;DHT22;4369;47.842;13.096;2023-09-19T12:18:44;26.20;1.00
8664;DHT22;4369;47.842;13.096;2023-09-19T12:21:30;25.70;1.00
8664;DHT22;4369;47.842;13.096;2023-09-19T12:24:06;24.90;1.00
8664;DHT22;4369;47.842;13.096;2023-09-19T12:26:40;24.50;1.00
8664;DHT22;4369;47.842;13.096;2023-09-19T12:29:13;24.20;1.00
8664;DHT22;4369;47.842;13.096;2023-09-19T12:31:53;24.10;1.00
8664;DHT22;4369;47.842;13.096;2023-09-19T12:34:24;24.30;1.00
8664;DHT22;4369;47.842;13.096;2023-09-19T12:37:10;26.60;1.00
8664;DHT22;4369;47.842;13.096;2023-09-19T12:39:49;32.90;1.00
8664;DHT22;4369;47.842;13.096;2023-09-19T12:42:17;38.20;1.00
8664;DHT22;4369;47.842;13.096;2023-09-19T12:44:45;42.00;1.00
8664;DHT22;4369;47.842;13.096;2023-09-19T12:47:14;45.60;1.00
8664;DHT22;4369;47.842;13.096;2023-09-19T12:50:11;46.50;1.00
8664;DHT22;4369;47.842;13.096;2023-09-19T12:52:45;44.60;1.00
8664;DHT22;4369;47.842;13.096;2023-09-19T12:55:21;45.90;1.00
8664;DHT22;4369;47.842;13.096;2023-09-19T12:57:56;47.20;1.00
8664;DHT22;4369;47.842;13.096;2023-09-19T13:00:32;47.10;1.00
8664;DHT22;4369;47.842;13.096;2023-09-19T13:03:17;45.30;1.00
8664;DHT22;4369;47.842;13.096;2023-09-19T13:05:51;42.20;1.00
8664;DHT22;4369;47.842;13.096;2023-09-19T13:08:23;37.70;1.00
8664;DHT22;4369;47.842;13.096;2023-09-19T13:11:09;36.50;1.00
8664;DHT22;4369;47.842;13.096;2023-09-19T13:13:39;38.00;1.00
8664;DHT22;4369;47.842;13.096;2023-09-19T13:16:07;40.10;1.00
8664;DHT22;4369;47.842;13.096;2023-09-19T13:18:45;40.80;1.00
8664;DHT22;4369;47.842;13.096;2023-09-19T13:21:13;39.40;1.00
8664;DHT22;4369;47.842;13.096;2023-09-19T13:23:51;37.30;1.00
8664;DHT22;4369;47.842;13.096;2023-09-19T13:26:18;37.60;1.00
8664;DHT22;4369;47.842;13.096;2023-09-19T13:28:45;38.40;1.00
8664;DHT22;4369;47.842;13.096;2023-09-19T13:31:13;37.20;1.00
8664;DHT22;4369;47.842;13.096;2023-09-19T13:33:44;36.70;1.00
8664;DHT22;4369;47.842;13.096;2023-09-19T13:36:12;37.40;1.00
8664;DHT22;4369;47.842;13.096;2023-09-19T13:38:40;37.70;1.00
8664;DHT22;4369;47.842;13.096;2023-09-19T13:41:10;39.20;1.00
8664;DHT22;4369;47.842;13.096;2023-09-19T13:43:37;40.10;1.00
8664;DHT22;4369;47.842;13.096;2023-09-19T13:46:04;40.80;1.00
8664;DHT22;4369;47.842;13.096;2023-09-19T13:48:33;40.10;1.00
8664;DHT22;4369;47.842;13.096;2023-09-19T13:51:04;41.20;1.00
8664;DHT22;4369;47.842;13.096;2023-09-19T13:53:31;41.60;1.00
8664;DHT22;4369;47.842;13.096;2023-09-19T13:55:57;42.30;1.00
8664;DHT22;4369;47.842;13.096;2023-09-19T13:58:26;41.60;1.00
8664;DHT22;4369;47.842;13.096;2023-09-19T14:00:55;41.60;1.00
8664;DHT22;4369;47.842;13.096;2023-09-19T14:03:26;41.20;1.00
8664;DHT22;4369;47.842;13.096;2023-09-19T14:05:54;41.70;1.00
8664;DHT22;4369;47.842;13.096;2023-09-19T14:08:21;42.60;1.00
8664;DHT22;4369;47.842;13.096;2023-09-19T14:10:49;43.40;1.00
8664;DHT22;4369;47.842;13.096;2023-09-19T14:13:16;42.80;1.00
8664;DHT22;4369;47.842;13.096;2023-09-19T14:15:44;42.70;1.00
8664;DHT22;4369;47.842;13.096;2023-09-19T14:18:11;42.70;1.00
8664;DHT22;4369;47.842;13.096;2023-09-19T14:20:38;42.10;1.00
8664;DHT22;4369;47.842;13.096;2023-09-19T14:23:06;41.80;1.00
8664;DHT22;4369;47.842;13.096;2023-09-19T14:25:34;41.30;1.00
8664;DHT22;4369;47.842;13.096;2023-09-19T14:28:02;41.30;1.00
8664;DHT22;4369;47.842;13.096;2023-09-19T14:30:28;41.00;1.00
8664;DHT22;4369;47.842;13.096;2023-09-19T14:32:57;39.10;1.00
8664;DHT22;4369;47.842;13.096;2023-09-19T14:35:24;36.90;1.00
8664;DHT22;4369;47.842;13.096;2023-09-19T14:37:51;34.10;1.00
8664;DHT22;4369;47.842;13.096;2023-09-19T14:40:18;33.90;1.00
8664;DHT22;4369;47.842;13.096;2023-09-19T14:42:46;34.70;1.00
8664;DHT22;4369;47.842;13.096;2023-09-19T14:45:13;35.30;1.00
8664;DHT22;4369;47.842;13.096;2023-09-19T14:47:45;35.40;1.00
8664;DHT22;4369;47.842;13.096;2023-09-19T14:50:15;35.20;1.00
8664;DHT22;4369;47.842;13.096;2023-09-19T14:52:42;36.60;1.00
8664;DHT22;4369;47.842;13.096;2023-09-19T14:55:09;36.50;1.00
8664;DHT22;4369;47.842;13.096;2023-09-19T14:57:40;37.80;1.00
8664;DHT22;4369;47.842;13.096;2023-09-19T15:00:09;37.90;1.00
8664;DHT22;4369;47.842;13.096;2023-09-19T15:02:38;38.60;1.00
8664;DHT22;4369;47.842;13.096;2023-09-19T15:05:06;39.40;1.00
8664;DHT22;4369;47.842;13.096;2023-09-19T15:07:36;39.20;1.00
8664;DHT22;4369;47.842;13.096;2023-09-19T15:10:04;38.40;1.00
8664;DHT22;4369;47.842;13.096;2023-09-19T15:12:35;35.90;1.00
8664;DHT22;4369;47.842;13.096;2023-09-19T15:15:03;33.50;1.00
8664;DHT22;4369;47.842;13.096;2023-09-19T15:17:32;32.00;1.00
8664;DHT22;4369;47.842;13.096;2023-09-19T15:19:59;31.00;1.00
8664;DHT22;4369;47.842;13.096;2023-09-19T15:22:27;30.00;1.00
8664;DHT22;4369;47.842;13.096;2023-09-19T15:24:55;29.40;1.00
8664;DHT22;4369;47.842;13.096;2023-09-19T15:27:22;28.90;1.00
8664;DHT22;4369;47.842;13.096;2023-09-19T15:29:49;28.00;1.00
8664;DHT22;4369;47.842;13.096;2023-09-19T15:32:16;27.60;1.00
8664;DHT22;4369;47.842;13.096;2023-09-19T15:34:43;27.30;1.00
8664;DHT22;4369;47.842;13.096;2023-09-19T15:37:10;26.70;1.00
8664;DHT22;4369;47.842;13.096;2023-09-19T15:39:37;26.10;1.00
8664;DHT22;4369;47.842;13.096;2023-09-19T15:42:05;25.70;1.00
8664;DHT22;4369;47.842;13.096;2023-09-19T15:44:32;25.50;1.00
8664;DHT22;4369;47.842;13.096;2023-09-19T15:46:59;25.30;1.00
8664;DHT22;4369;47.842;13.096;2023-09-19T15:49:27;25.10;1.00
8664;DHT22;4369;47.842;13.096;2023-09-19T15:51:53;24.90;1.00
8664;DHT22;4369;47.842;13.096;2023-09-19T15:54:20;24.70;1.00
8664;DHT22;4369;47.842;13.096;2023-09-19T15:56:48;24.50;1.00
8664;DHT22;4369;47.842;13.096;2023-09-19T15:59:18;24.40;1.00
8664;DHT22;4369;47.842;13.096;2023-09-19T16:01:45;24.20;1.00
8664;DHT22;4369;47.842;13.096;2023-09-19T16:04:12;24.10;1.00
8664;DHT22;4369;47.842;13.096;2023-09-19T16:06:40;23.90;1.00
8664;DHT22;4369;47.842;13.096;2023-09-19T16:09:08;23.60;1.00
8664;DHT22;4369;47.842;13.096;2023-09-19T16:11:36;23.40;1.00
8664;DHT22;4369;47.842;13.096;2023-09-19T16:14:04;23.10;1.00
8664;DHT22;4369;47.842;13.096;2023-09-19T16:16:33;22.90;1.00
8664;DHT22;4369;47.842;13.096;2023-09-19T16:19:02;22.80;1.00
8664;DHT22;4369;47.842;13.096;2023-09-19T16:21:32;22.60;1.00